Kennard Corner, Washington
Current Conditions -  °F | °C
As of 6:53 PM on Monday 22 Dec 2014 (Local Time) from KPAE Reporting Station
Scattered Clouds Scattered Clouds  
Wind Chill: 43°   Ceiling: Unl
Heat Index: 46°   Visibility: 10mi
Dew Point: 39°   Wind: 6mph
Humidity: 76%   Direction: 110°ESE
Pressure: 30.35"   Gusts: NA
Location:  47.7933°N, 122.207°W
Report Text: KPAE 230253Z 11005KT 10SM SCT120 08/04 A3035 RMK AO2 SLP280 T00780039 58005
Loading
Personal Weather Stations






























Interactive Weather Map New forecast layout! Learn more

10-Day Weather Forecast

Advertisements
Track Severe Weather on mobile